SWA3607 KPHX-KELP
Flight info
| Callsign | SWA3607 |
|---|---|
| Flight time | 0h 50m |
| Altitude | 37000 |
| Route | ECLPS1 PHASE TEEES MOLLY5 |
| Aircraft | B38M/M-SDE1FGHILORVWXY/HB1 |
Departure
| Time | 2026-05-04 10:22 |
|---|---|
| Airport | Phoenix Sky Harbor International Airport (KPHX) |
Arrival
| Time | 2026-05-04 11:12 |
|---|---|
| Airport | El Paso International Airport (KELP) |
| Time | Latitude | Longitude | Altitude | Speed | Heading |
|---|---|---|---|---|---|
| 2026-05-04 10:09 | 33.43355 | -111.99479 | 1127 ft | 0 kts | 68° |
| 2026-05-04 10:16 | 33.43380 | -111.99528 | 1127 ft | 0 kts | 180° |
| 2026-05-04 10:19 | 33.43351 | -111.99528 | 1124 ft | 5 kts | 179° |
| 2026-05-04 10:19 | 33.43303 | -111.99536 | 1119 ft | 9 kts | 205° |
| 2026-05-04 10:19 | 33.43283 | -111.99619 | 1127 ft | 13 kts | 269° |
| 2026-05-04 10:19 | 33.43282 | -111.99750 | 1122 ft | 17 kts | 268° |
| 2026-05-04 10:20 | 33.43220 | -111.99776 | 1135 ft | 12 kts | 114° |
| 2026-05-04 10:20 | 33.43214 | -111.99653 | 1129 ft | 20 kts | 90° |
| 2026-05-04 10:20 | 33.43213 | -111.99467 | 1134 ft | 24 kts | 90° |
| 2026-05-04 10:20 | 33.43155 | -111.99345 | 1137 ft | 11 kts | 175° |
| 2026-05-04 10:21 | 33.43105 | -111.99365 | 1137 ft | 7 kts | 246° |
| 2026-05-04 10:21 | 33.43103 | -111.99452 | 1136 ft | 22 kts | 269° |
| 2026-05-04 10:21 | 33.43104 | -111.99955 | 1134 ft | 98 kts | 270° |
| 2026-05-04 10:21 | 33.43107 | -112.01038 | 1131 ft | 161 kts | 269° |
| 2026-05-04 10:22 | 33.43007 | -112.04204 | 2315 ft | 187 kts | 265° |
| 2026-05-04 10:22 | 33.42928 | -112.05790 | 3122 ft | 199 kts | 266° |
| 2026-05-04 10:22 | 33.42779 | -112.07511 | 3720 ft | 219 kts | 254° |
| 2026-05-04 10:23 | 33.42250 | -112.09320 | 4342 ft | 240 kts | 249° |
| 2026-05-04 10:23 | 33.41647 | -112.11266 | 5032 ft | 259 kts | 249° |
| 2026-05-04 10:25 | 33.31043 | -112.16154 | 11016 ft | 306 kts | 165° |
| 2026-05-04 10:25 | 33.29058 | -112.15120 | 11647 ft | 319 kts | 146° |
| 2026-05-04 10:25 | 33.27396 | -112.13348 | 12352 ft | 328 kts | 139° |
| 2026-05-04 10:25 | 33.25715 | -112.11425 | 13170 ft | 332 kts | 139° |
| 2026-05-04 10:26 | 33.24232 | -112.09317 | 13842 ft | 344 kts | 122° |
| 2026-05-04 10:26 | 33.23353 | -112.06634 | 14599 ft | 352 kts | 110° |
| 2026-05-04 10:26 | 33.22580 | -112.03783 | 15223 ft | 360 kts | 111° |
| 2026-05-04 10:26 | 33.21816 | -112.00922 | 15899 ft | 365 kts | 110° |
| 2026-05-04 10:27 | 33.21044 | -111.98005 | 16533 ft | 371 kts | 110° |
| 2026-05-04 10:27 | 33.20532 | -111.96057 | 16912 ft | 375 kts | 110° |
| 2026-05-04 10:27 | 33.19482 | -111.92063 | 17700 ft | 383 kts | 110° |
| 2026-05-04 10:27 | 33.18680 | -111.89011 | 18264 ft | 388 kts | 110° |
| 2026-05-04 10:28 | 33.18132 | -111.86927 | 18657 ft | 392 kts | 110° |
| 2026-05-04 10:28 | 33.17044 | -111.82793 | 19450 ft | 396 kts | 111° |
| 2026-05-04 10:28 | 33.16484 | -111.80666 | 19831 ft | 399 kts | 110° |
| 2026-05-04 10:28 | 33.15647 | -111.77494 | 20390 ft | 402 kts | 111° |
| 2026-05-04 10:29 | 33.14801 | -111.74295 | 20944 ft | 406 kts | 111° |
| 2026-05-04 10:29 | 33.13949 | -111.71073 | 21482 ft | 409 kts | 111° |
| 2026-05-04 10:29 | 33.13088 | -111.67819 | 22004 ft | 413 kts | 111° |
| 2026-05-04 10:29 | 33.12220 | -111.64542 | 22534 ft | 415 kts | 111° |
| 2026-05-04 10:30 | 33.11357 | -111.61290 | 23033 ft | 419 kts | 111° |
| 2026-05-04 10:30 | 33.10463 | -111.57921 | 23504 ft | 422 kts | 111° |
| 2026-05-04 10:30 | 33.09573 | -111.54575 | 23976 ft | 426 kts | 111° |
| 2026-05-04 10:30 | 33.08675 | -111.51201 | 24429 ft | 428 kts | 111° |
| 2026-05-04 10:31 | 33.07768 | -111.47800 | 24831 ft | 433 kts | 111° |
| 2026-05-04 10:31 | 33.06652 | -111.44476 | 25158 ft | 431 kts | 125° |
| 2026-05-04 10:32 | 32.96672 | -111.26095 | 27372 ft | 451 kts | 128° |
| 2026-05-04 10:33 | 32.94933 | -111.22946 | 27586 ft | 460 kts | 129° |
| 2026-05-04 10:33 | 32.93180 | -111.19761 | 28041 ft | 457 kts | 129° |
| 2026-05-04 10:33 | 32.91435 | -111.16584 | 28179 ft | 460 kts | 129° |
| 2026-05-04 10:33 | 32.89675 | -111.13376 | 28288 ft | 468 kts | 129° |
| 2026-05-04 10:34 | 32.87877 | -111.10121 | 28648 ft | 471 kts | 129° |
| 2026-05-04 10:34 | 32.86072 | -111.06860 | 28991 ft | 473 kts | 129° |
| 2026-05-04 10:34 | 32.84255 | -111.03577 | 29171 ft | 480 kts | 129° |
| 2026-05-04 10:34 | 32.82417 | -111.00249 | 29558 ft | 481 kts | 129° |
| 2026-05-04 10:35 | 32.80574 | -110.96921 | 29847 ft | 484 kts | 130° |
| 2026-05-04 10:35 | 32.78708 | -110.93556 | 30033 ft | 489 kts | 129° |
| 2026-05-04 10:35 | 32.76835 | -110.90173 | 30306 ft | 491 kts | 130° |
| 2026-05-04 10:35 | 32.74938 | -110.86757 | 30517 ft | 497 kts | 129° |
| 2026-05-04 10:36 | 32.73032 | -110.83322 | 30878 ft | 498 kts | 129° |
| 2026-05-04 10:36 | 32.71117 | -110.79882 | 31109 ft | 502 kts | 129° |
| 2026-05-04 10:36 | 32.69187 | -110.76411 | 31329 ft | 506 kts | 129° |
| 2026-05-04 10:36 | 32.67249 | -110.72930 | 31630 ft | 507 kts | 129° |
| 2026-05-04 10:37 | 32.65334 | -110.69398 | 31821 ft | 513 kts | 124° |
| 2026-05-04 10:37 | 32.63970 | -110.65438 | 32053 ft | 524 kts | 107° |
| 2026-05-04 10:37 | 32.63051 | -110.61241 | 32348 ft | 525 kts | 108° |
| 2026-05-04 10:37 | 32.62081 | -110.57040 | 32486 ft | 531 kts | 108° |
| 2026-05-04 10:39 | 32.56368 | -110.31377 | 34050 ft | 542 kts | 107° |
| 2026-05-04 10:39 | 32.55398 | -110.27030 | 34253 ft | 545 kts | 107° |
| 2026-05-04 10:39 | 32.54437 | -110.22733 | 34512 ft | 546 kts | 107° |
| 2026-05-04 10:40 | 32.53464 | -110.18389 | 34797 ft | 546 kts | 107° |
| 2026-05-04 10:40 | 32.52475 | -110.13981 | 35123 ft | 545 kts | 107° |
| 2026-05-04 10:40 | 32.51500 | -110.09643 | 35435 ft | 545 kts | 107° |
| 2026-05-04 10:40 | 32.50538 | -110.05367 | 35718 ft | 544 kts | 107° |
| 2026-05-04 10:41 | 32.49565 | -110.01049 | 35976 ft | 543 kts | 107° |
| 2026-05-04 10:41 | 32.48588 | -109.96722 | 36237 ft | 543 kts | 107° |
| 2026-05-04 10:41 | 32.47596 | -109.92342 | 36477 ft | 543 kts | 107° |
| 2026-05-04 10:41 | 32.46630 | -109.88080 | 36717 ft | 543 kts | 107° |
| 2026-05-04 10:42 | 32.45641 | -109.83721 | 37030 ft | 541 kts | 107° |
| 2026-05-04 10:42 | 32.44663 | -109.79418 | 37134 ft | 541 kts | 107° |
| 2026-05-04 10:42 | 32.43763 | -109.75120 | 37057 ft | 535 kts | 100° |
| 2026-05-04 10:43 | 32.42639 | -109.66499 | 37027 ft | 532 kts | 99° |
| 2026-05-04 10:44 | 32.38758 | -109.36069 | 37146 ft | 534 kts | 99° |
| 2026-05-04 10:45 | 32.38198 | -109.31722 | 37155 ft | 535 kts | 99° |
| 2026-05-04 10:45 | 32.37073 | -109.23028 | 37157 ft | 535 kts | 99° |
| 2026-05-04 10:46 | 32.35960 | -109.14319 | 37159 ft | 535 kts | 96° |
| 2026-05-04 10:46 | 32.35132 | -109.05554 | 37155 ft | 537 kts | 96° |
| 2026-05-04 10:47 | 32.34270 | -108.96790 | 37171 ft | 536 kts | 96° |
| 2026-05-04 10:47 | 32.33402 | -108.88027 | 37178 ft | 537 kts | 96° |
| 2026-05-04 10:49 | 32.29868 | -108.52982 | 37199 ft | 537 kts | 96° |
| 2026-05-04 10:50 | 32.28968 | -108.44208 | 36239 ft | 541 kts | 96° |
| 2026-05-04 10:51 | 32.25728 | -108.14205 | 31642 ft | 511 kts | 98° |
| 2026-05-04 10:52 | 32.25256 | -108.10050 | 31064 ft | 512 kts | 98° |
| 2026-05-04 10:52 | 32.24781 | -108.05878 | 30555 ft | 509 kts | 98° |
| 2026-05-04 10:52 | 32.24306 | -108.01746 | 30093 ft | 505 kts | 98° |
| 2026-05-04 10:54 | 32.21050 | -107.73485 | 26519 ft | 487 kts | 98° |
| 2026-05-04 10:54 | 32.20593 | -107.69535 | 26070 ft | 481 kts | 98° |
| 2026-05-04 10:56 | 32.17492 | -107.43022 | 22796 ft | 449 kts | 98° |
| 2026-05-04 10:56 | 32.17063 | -107.39391 | 22348 ft | 445 kts | 98° |
| 2026-05-04 10:56 | 32.16637 | -107.35793 | 21897 ft | 441 kts | 98° |
| 2026-05-04 10:57 | 32.16213 | -107.32224 | 21454 ft | 437 kts | 98° |
| 2026-05-04 10:57 | 32.15792 | -107.28691 | 21013 ft | 433 kts | 98° |
| 2026-05-04 10:57 | 32.15373 | -107.25181 | 20575 ft | 430 kts | 98° |
| 2026-05-04 10:57 | 32.14958 | -107.21708 | 20145 ft | 426 kts | 98° |
| 2026-05-04 10:58 | 32.14543 | -107.18249 | 19710 ft | 423 kts | 98° |
| 2026-05-04 10:58 | 32.14131 | -107.14824 | 19278 ft | 420 kts | 98° |
| 2026-05-04 10:58 | 32.13722 | -107.11421 | 18848 ft | 417 kts | 98° |
| 2026-05-04 10:58 | 32.13318 | -107.08085 | 18425 ft | 415 kts | 98° |
| 2026-05-04 10:59 | 32.12913 | -107.04733 | 17994 ft | 412 kts | 98° |
| 2026-05-04 10:59 | 32.12509 | -107.01399 | 17580 ft | 409 kts | 98° |
| 2026-05-04 10:59 | 32.12092 | -106.98087 | 17149 ft | 406 kts | 102° |
| 2026-05-04 10:59 | 32.11390 | -106.94861 | 16626 ft | 405 kts | 105° |
| 2026-05-04 11:00 | 32.10682 | -106.91654 | 16154 ft | 404 kts | 105° |
| 2026-05-04 11:01 | 32.05620 | -106.69534 | 12567 ft | 389 kts | 107° |
| 2026-05-04 11:02 | 32.04878 | -106.66512 | 11970 ft | 378 kts | 106° |
| 2026-05-04 11:02 | 32.04160 | -106.63588 | 11503 ft | 365 kts | 107° |
| 2026-05-04 11:05 | 31.93776 | -106.33394 | 8648 ft | 239 kts | 128° |
| 2026-05-04 11:06 | 31.92750 | -106.31833 | 8194 ft | 244 kts | 128° |
| 2026-05-04 11:06 | 31.91567 | -106.30401 | 7829 ft | 244 kts | 148° |
| 2026-05-04 11:06 | 31.89990 | -106.29730 | 7501 ft | 244 kts | 175° |
| 2026-05-04 11:06 | 31.88329 | -106.29991 | 7179 ft | 243 kts | 200° |
| 2026-05-04 11:08 | 31.88453 | -106.38305 | 5290 ft | 195 kts | 13° |
| 2026-05-04 11:10 | 31.85808 | -106.33801 | 4780 ft | 153 kts | 187° |
| 2026-05-04 11:12 | 31.80822 | -106.39055 | 3950 ft | 79 kts | 229° |
| 2026-05-04 11:12 | 31.80549 | -106.39436 | 3951 ft | 42 kts | 229° |
| 2026-05-04 11:12 | 31.80364 | -106.39697 | 3951 ft | 41 kts | 230° |
| 2026-05-04 11:12 | 31.80243 | -106.39835 | 3951 ft | 9 kts | 178° |
| 2026-05-04 11:13 | 31.80194 | -106.39799 | 3950 ft | 9 kts | 141° |
| 2026-05-04 11:13 | 31.80159 | -106.39734 | 3950 ft | 10 kts | 99° |
| 2026-05-04 11:13 | 31.80152 | -106.39644 | 3949 ft | 12 kts | 94° |
| 2026-05-04 11:13 | 31.80148 | -106.39554 | 3949 ft | 10 kts | 93° |
| 2026-05-04 11:14 | 31.80146 | -106.39527 | 3949 ft | 9 kts | 94° |
| 2026-05-04 11:16 | 31.80051 | -106.39465 | 3949 ft | 0 kts | 161° |